sensor_id;sensor_type;location;lat;lon;timestamp;P1;durP1;ratioP1;P2;durP2;ratioP2
22916;SDS011;11624;53.250;7.456;2022-12-07T00:01:18;26.03;;;8.00;;
22916;SDS011;11624;53.250;7.456;2022-12-07T00:03:48;28.47;;;9.00;;
22916;SDS011;11624;53.250;7.456;2022-12-07T00:06:18;30.63;;;8.33;;
22916;SDS011;11624;53.250;7.456;2022-12-07T00:08:47;24.27;;;8.03;;
22916;SDS011;11624;53.250;7.456;2022-12-07T00:11:17;33.27;;;9.10;;
22916;SDS011;11624;53.250;7.456;2022-12-07T00:13:47;30.87;;;8.90;;
22916;SDS011;11624;53.250;7.456;2022-12-07T00:16:19;26.43;;;8.63;;
22916;SDS011;11624;53.250;7.456;2022-12-07T00:18:49;24.40;;;8.10;;
22916;SDS011;11624;53.250;7.456;2022-12-07T00:21:18;34.00;;;8.50;;
22916;SDS011;11624;53.250;7.456;2022-12-07T00:23:49;26.23;;;7.70;;
22916;SDS011;11624;53.250;7.456;2022-12-07T00:26:20;28.37;;;8.00;;
22916;SDS011;11624;53.250;7.456;2022-12-07T00:28:50;23.03;;;8.13;;
22916;SDS011;11624;53.250;7.456;2022-12-07T00:31:21;28.27;;;7.70;;
22916;SDS011;11624;53.250;7.456;2022-12-07T00:33:50;28.97;;;6.97;;
22916;SDS011;11624;53.250;7.456;2022-12-07T00:36:19;23.63;;;7.50;;
22916;SDS011;11624;53.250;7.456;2022-12-07T00:38:52;23.53;;;6.87;;
22916;SDS011;11624;53.250;7.456;2022-12-07T00:41:23;27.87;;;7.63;;
22916;SDS011;11624;53.250;7.456;2022-12-07T00:43:52;23.47;;;7.17;;
22916;SDS011;11624;53.250;7.456;2022-12-07T00:46:21;28.93;;;6.73;;
22916;SDS011;11624;53.250;7.456;2022-12-07T00:48:50;22.27;;;6.00;;
22916;SDS011;11624;53.250;7.456;2022-12-07T00:51:20;20.53;;;5.87;;
22916;SDS011;11624;53.250;7.456;2022-12-07T00:53:50;19.53;;;5.37;;
22916;SDS011;11624;53.250;7.456;2022-12-07T00:56:20;19.07;;;5.93;;
22916;SDS011;11624;53.250;7.456;2022-12-07T00:58:51;21.87;;;6.03;;
22916;SDS011;11624;53.250;7.456;2022-12-07T01:01:20;19.47;;;5.47;;
22916;SDS011;11624;53.250;7.456;2022-12-07T01:03:49;21.27;;;4.10;;
22916;SDS011;11624;53.250;7.456;2022-12-07T01:06:18;22.47;;;4.43;;
22916;SDS011;11624;53.250;7.456;2022-12-07T01:08:47;22.57;;;4.70;;
22916;SDS011;11624;53.250;7.456;2022-12-07T01:11:16;20.30;;;4.00;;
22916;SDS011;11624;53.250;7.456;2022-12-07T01:13:46;20.67;;;4.30;;
22916;SDS011;11624;53.250;7.456;2022-12-07T01:16:16;15.17;;;3.73;;
22916;SDS011;11624;53.250;7.456;2022-12-07T01:18:45;17.40;;;3.70;;
22916;SDS011;11624;53.250;7.456;2022-12-07T01:21:15;23.20;;;3.83;;
22916;SDS011;11624;53.250;7.456;2022-12-07T01:23:45;17.37;;;3.77;;
22916;SDS011;11624;53.250;7.456;2022-12-07T01:26:14;13.37;;;2.87;;
22916;SDS011;11624;53.250;7.456;2022-12-07T01:28:43;16.00;;;3.10;;
22916;SDS011;11624;53.250;7.456;2022-12-07T01:31:13;14.63;;;3.00;;
22916;SDS011;11624;53.250;7.456;2022-12-07T01:33:45;13.23;;;2.73;;
22916;SDS011;11624;53.250;7.456;2022-12-07T01:36:15;18.07;;;2.87;;
22916;SDS011;11624;53.250;7.456;2022-12-07T01:38:44;13.47;;;2.80;;
22916;SDS011;11624;53.250;7.456;2022-12-07T01:41:13;14.30;;;2.23;;
22916;SDS011;11624;53.250;7.456;2022-12-07T01:46:39;16.20;;;1.80;;
22916;SDS011;11624;53.250;7.456;2022-12-07T01:49:11;17.00;;;2.37;;
22916;SDS011;11624;53.250;7.456;2022-12-07T01:51:43;11.57;;;1.90;;
22916;SDS011;11624;53.250;7.456;2022-12-07T01:54:13;12.87;;;1.60;;
22916;SDS011;11624;53.250;7.456;2022-12-07T01:56:45;9.30;;;1.70;;
22916;SDS011;11624;53.250;7.456;2022-12-07T01:59:16;14.00;;;1.70;;
22916;SDS011;11624;53.250;7.456;2022-12-07T02:01:46;12.57;;;2.23;;
22916;SDS011;11624;53.250;7.456;2022-12-07T02:04:15;8.83;;;1.70;;
22916;SDS011;11624;53.250;7.456;2022-12-07T02:06:44;17.23;;;2.00;;
22916;SDS011;11624;53.250;7.456;2022-12-07T02:09:13;14.67;;;1.87;;
22916;SDS011;11624;53.250;7.456;2022-12-07T02:11:41;9.23;;;1.70;;
22916;SDS011;11624;53.250;7.456;2022-12-07T02:14:09;15.73;;;1.57;;
22916;SDS011;11624;53.250;7.456;2022-12-07T02:16:40;12.83;;;1.37;;
22916;SDS011;11624;53.250;7.456;2022-12-07T02:19:36;8.50;;;1.30;;
22916;SDS011;11624;53.250;7.456;2022-12-07T02:22:24;13.03;;;1.90;;
22916;SDS011;11624;53.250;7.456;2022-12-07T02:25:12;15.33;;;1.50;;
22916;SDS011;11624;53.250;7.456;2022-12-07T02:27:50;9.73;;;1.40;;
22916;SDS011;11624;53.250;7.456;2022-12-07T02:30:25;15.13;;;1.67;;
22916;SDS011;11624;53.250;7.456;2022-12-07T02:32:58;10.93;;;1.50;;
22916;SDS011;11624;53.250;7.456;2022-12-07T02:35:32;10.87;;;1.57;;
22916;SDS011;11624;53.250;7.456;2022-12-07T02:38:03;10.77;;;1.67;;
22916;SDS011;11624;53.250;7.456;2022-12-07T02:40:40;11.27;;;1.63;;
22916;SDS011;11624;53.250;7.456;2022-12-07T02:43:11;9.87;;;1.27;;
22916;SDS011;11624;53.250;7.456;2022-12-07T02:45:45;11.43;;;1.37;;
22916;SDS011;11624;53.250;7.456;2022-12-07T02:48:16;18.20;;;1.57;;
22916;SDS011;11624;53.250;7.456;2022-12-07T02:50:48;9.63;;;1.60;;
22916;SDS011;11624;53.250;7.456;2022-12-07T02:53:32;14.53;;;1.60;;
22916;SDS011;11624;53.250;7.456;2022-12-07T02:56:03;16.10;;;2.20;;
22916;SDS011;11624;53.250;7.456;2022-12-07T02:58:39;15.60;;;1.80;;
22916;SDS011;11624;53.250;7.456;2022-12-07T03:01:21;11.10;;;1.30;;
22916;SDS011;11624;53.250;7.456;2022-12-07T03:03:59;10.57;;;1.40;;
22916;SDS011;11624;53.250;7.456;2022-12-07T03:06:47;7.07;;;1.20;;
22916;SDS011;11624;53.250;7.456;2022-12-07T03:09:21;9.63;;;1.57;;
22916;SDS011;11624;53.250;7.456;2022-12-07T03:11:58;14.30;;;1.63;;
22916;SDS011;11624;53.250;7.456;2022-12-07T03:14:31;11.77;;;1.80;;
22916;SDS011;11624;53.250;7.456;2022-12-07T03:17:08;14.97;;;1.37;;
22916;SDS011;11624;53.250;7.456;2022-12-07T03:19:41;9.27;;;1.17;;
22916;SDS011;11624;53.250;7.456;2022-12-07T03:22:13;12.67;;;1.40;;
22916;SDS011;11624;53.250;7.456;2022-12-07T03:24:43;10.57;;;1.30;;
22916;SDS011;11624;53.250;7.456;2022-12-07T03:27:15;8.47;;;1.00;;
22916;SDS011;11624;53.250;7.456;2022-12-07T03:29:48;14.57;;;1.23;;
22916;SDS011;11624;53.250;7.456;2022-12-07T03:32:21;6.70;;;1.03;;
22916;SDS011;11624;53.250;7.456;2022-12-07T03:34:55;10.60;;;1.20;;
22916;SDS011;11624;53.250;7.456;2022-12-07T03:37:29;6.70;;;0.87;;
22916;SDS011;11624;53.250;7.456;2022-12-07T03:40:02;8.57;;;1.00;;
22916;SDS011;11624;53.250;7.456;2022-12-07T03:42:34;8.27;;;1.13;;
22916;SDS011;11624;53.250;7.456;2022-12-07T03:45:02;13.70;;;1.30;;
22916;SDS011;11624;53.250;7.456;2022-12-07T03:47:34;13.90;;;1.20;;
22916;SDS011;11624;53.250;7.456;2022-12-07T03:50:08;6.80;;;1.17;;
22916;SDS011;11624;53.250;7.456;2022-12-07T03:52:41;12.93;;;1.63;;
22916;SDS011;11624;53.250;7.456;2022-12-07T03:55:14;13.37;;;1.40;;
22916;SDS011;11624;53.250;7.456;2022-12-07T03:57:47;14.63;;;1.13;;
22916;SDS011;11624;53.250;7.456;2022-12-07T04:00:18;11.47;;;1.53;;
22916;SDS011;11624;53.250;7.456;2022-12-07T04:02:50;17.20;;;2.10;;
22916;SDS011;11624;53.250;7.456;2022-12-07T04:05:19;18.17;;;1.90;;
22916;SDS011;11624;53.250;7.456;2022-12-07T04:07:48;11.33;;;1.47;;
22916;SDS011;11624;53.250;7.456;2022-12-07T04:10:16;9.93;;;1.10;;
22916;SDS011;11624;53.250;7.456;2022-12-07T04:12:44;13.90;;;1.73;;
22916;SDS011;11624;53.250;7.456;2022-12-07T04:15:12;9.70;;;1.60;;
22916;SDS011;11624;53.250;7.456;2022-12-07T04:17:40;14.80;;;1.50;;
22916;SDS011;11624;53.250;7.456;2022-12-07T04:20:11;17.97;;;1.90;;
22916;SDS011;11624;53.250;7.456;2022-12-07T04:22:39;13.70;;;1.53;;
22916;SDS011;11624;53.250;7.456;2022-12-07T04:25:08;10.93;;;1.23;;
22916;SDS011;11624;53.250;7.456;2022-12-07T04:27:36;11.73;;;1.77;;
22916;SDS011;11624;53.250;7.456;2022-12-07T04:30:04;9.97;;;1.23;;
22916;SDS011;11624;53.250;7.456;2022-12-07T04:32:33;8.23;;;1.17;;
22916;SDS011;11624;53.250;7.456;2022-12-07T04:35:01;16.87;;;1.53;;
22916;SDS011;11624;53.250;7.456;2022-12-07T04:37:31;11.53;;;1.20;;
22916;SDS011;11624;53.250;7.456;2022-12-07T04:39:59;10.47;;;1.40;;
22916;SDS011;11624;53.250;7.456;2022-12-07T04:42:28;10.30;;;1.57;;
22916;SDS011;11624;53.250;7.456;2022-12-07T04:44:56;8.63;;;1.30;;
22916;SDS011;11624;53.250;7.456;2022-12-07T04:47:24;15.73;;;1.77;;
22916;SDS011;11624;53.250;7.456;2022-12-07T04:49:52;12.63;;;1.57;;
22916;SDS011;11624;53.250;7.456;2022-12-07T04:52:20;9.77;;;1.37;;
22916;SDS011;11624;53.250;7.456;2022-12-07T04:54:49;17.23;;;1.50;;
22916;SDS011;11624;53.250;7.456;2022-12-07T04:57:17;13.60;;;1.63;;
22916;SDS011;11624;53.250;7.456;2022-12-07T04:59:45;10.87;;;2.17;;
22916;SDS011;11624;53.250;7.456;2022-12-07T05:02:13;11.87;;;2.13;;
22916;SDS011;11624;53.250;7.456;2022-12-07T05:04:42;6.67;;;1.10;;
22916;SDS011;11624;53.250;7.456;2022-12-07T05:07:10;11.50;;;1.53;;
22916;SDS011;11624;53.250;7.456;2022-12-07T05:09:38;11.73;;;1.20;;
22916;SDS011;11624;53.250;7.456;2022-12-07T05:12:07;8.57;;;1.10;;
22916;SDS011;11624;53.250;7.456;2022-12-07T05:14:35;8.40;;;0.90;;
22916;SDS011;11624;53.250;7.456;2022-12-07T05:17:03;6.03;;;0.90;;
22916;SDS011;11624;53.250;7.456;2022-12-07T05:19:31;8.13;;;0.80;;
22916;SDS011;11624;53.250;7.456;2022-12-07T05:21:59;9.87;;;1.20;;
22916;SDS011;11624;53.250;7.456;2022-12-07T05:24:27;8.33;;;1.20;;
22916;SDS011;11624;53.250;7.456;2022-12-07T05:26:55;6.67;;;0.90;;
22916;SDS011;11624;53.250;7.456;2022-12-07T05:29:25;5.57;;;0.77;;
22916;SDS011;11624;53.250;7.456;2022-12-07T05:31:53;9.40;;;1.40;;
22916;SDS011;11624;53.250;7.456;2022-12-07T05:34:21;7.73;;;0.93;;
22916;SDS011;11624;53.250;7.456;2022-12-07T05:36:49;12.30;;;1.27;;
22916;SDS011;11624;53.250;7.456;2022-12-07T05:39:17;10.10;;;1.23;;
22916;SDS011;11624;53.250;7.456;2022-12-07T05:41:45;5.87;;;0.83;;
22916;SDS011;11624;53.250;7.456;2022-12-07T05:44:32;8.40;;;1.00;;
22916;SDS011;11624;53.250;7.456;2022-12-07T05:47:00;10.40;;;1.07;;
22916;SDS011;11624;53.250;7.456;2022-12-07T05:49:28;9.27;;;1.20;;
22916;SDS011;11624;53.250;7.456;2022-12-07T05:51:56;7.80;;;0.83;;
22916;SDS011;11624;53.250;7.456;2022-12-07T05:54:24;11.97;;;1.23;;
22916;SDS011;11624;53.250;7.456;2022-12-07T05:56:52;9.77;;;1.13;;
22916;SDS011;11624;53.250;7.456;2022-12-07T05:59:20;6.27;;;1.20;;
22916;SDS011;11624;53.250;7.456;2022-12-07T06:01:53;5.23;;;1.07;;
22916;SDS011;11624;53.250;7.456;2022-12-07T06:04:22;5.83;;;0.97;;
22916;SDS011;11624;53.250;7.456;2022-12-07T06:06:52;12.67;;;1.00;;
22916;SDS011;11624;53.250;7.456;2022-12-07T06:09:20;8.23;;;0.90;;
22916;SDS011;11624;53.250;7.456;2022-12-07T06:11:49;9.80;;;0.90;;
22916;SDS011;11624;53.250;7.456;2022-12-07T06:14:35;9.53;;;1.23;;
22916;SDS011;11624;53.250;7.456;2022-12-07T06:17:05;8.70;;;1.00;;
22916;SDS011;11624;53.250;7.456;2022-12-07T06:19:33;9.77;;;1.10;;
22916;SDS011;11624;53.250;7.456;2022-12-07T06:22:01;11.60;;;1.03;;
22916;SDS011;11624;53.250;7.456;2022-12-07T06:24:30;9.10;;;1.07;;
22916;SDS011;11624;53.250;7.456;2022-12-07T06:26:59;6.87;;;1.03;;
22916;SDS011;11624;53.250;7.456;2022-12-07T06:29:27;6.37;;;1.30;;
22916;SDS011;11624;53.250;7.456;2022-12-07T06:31:55;10.27;;;1.50;;
22916;SDS011;11624;53.250;7.456;2022-12-07T06:34:25;12.83;;;1.50;;
22916;SDS011;11624;53.250;7.456;2022-12-07T06:36:54;10.67;;;1.10;;
22916;SDS011;11624;53.250;7.456;2022-12-07T06:39:22;10.13;;;1.40;;
22916;SDS011;11624;53.250;7.456;2022-12-07T06:41:52;10.20;;;1.10;;
22916;SDS011;11624;53.250;7.456;2022-12-07T06:44:20;6.37;;;0.90;;
22916;SDS011;11624;53.250;7.456;2022-12-07T06:46:49;9.67;;;1.13;;
22916;SDS011;11624;53.250;7.456;2022-12-07T06:49:33;11.27;;;1.10;;
22916;SDS011;11624;53.250;7.456;2022-12-07T06:52:01;6.33;;;1.13;;
22916;SDS011;11624;53.250;7.456;2022-12-07T06:54:31;13.20;;;1.60;;
22916;SDS011;11624;53.250;7.456;2022-12-07T06:56:59;6.57;;;0.90;;
22916;SDS011;11624;53.250;7.456;2022-12-07T06:59:27;4.73;;;1.10;;
22916;SDS011;11624;53.250;7.456;2022-12-07T07:01:55;8.30;;;1.30;;
22916;SDS011;11624;53.250;7.456;2022-12-07T07:04:23;12.13;;;1.07;;
22916;SDS011;11624;53.250;7.456;2022-12-07T07:06:52;13.07;;;1.40;;
22916;SDS011;11624;53.250;7.456;2022-12-07T07:09:25;14.10;;;1.40;;
22916;SDS011;11624;53.250;7.456;2022-12-07T07:11:53;9.77;;;1.67;;
22916;SDS011;11624;53.250;7.456;2022-12-07T07:14:22;9.10;;;1.47;;
22916;SDS011;11624;53.250;7.456;2022-12-07T07:16:50;12.53;;;1.37;;
22916;SDS011;11624;53.250;7.456;2022-12-07T07:19:18;8.43;;;1.17;;
22916;SDS011;11624;53.250;7.456;2022-12-07T07:21:46;15.30;;;1.67;;
22916;SDS011;11624;53.250;7.456;2022-12-07T07:24:15;11.23;;;1.50;;
22916;SDS011;11624;53.250;7.456;2022-12-07T07:26:43;9.17;;;1.40;;
22916;SDS011;11624;53.250;7.456;2022-12-07T07:29:11;11.87;;;1.40;;
22916;SDS011;11624;53.250;7.456;2022-12-07T07:31:40;13.60;;;1.70;;
22916;SDS011;11624;53.250;7.456;2022-12-07T07:34:08;11.30;;;1.73;;
22916;SDS011;11624;53.250;7.456;2022-12-07T07:36:36;12.03;;;2.13;;
22916;SDS011;11624;53.250;7.456;2022-12-07T07:39:04;7.77;;;1.70;;
22916;SDS011;11624;53.250;7.456;2022-12-07T07:41:33;8.13;;;1.40;;
22916;SDS011;11624;53.250;7.456;2022-12-07T07:44:02;14.43;;;1.20;;
22916;SDS011;11624;53.250;7.456;2022-12-07T07:46:30;8.40;;;1.13;;
22916;SDS011;11624;53.250;7.456;2022-12-07T07:48:59;7.50;;;1.23;;
22916;SDS011;11624;53.250;7.456;2022-12-07T07:51:27;11.40;;;1.80;;
22916;SDS011;11624;53.250;7.456;2022-12-07T07:53:55;10.17;;;1.57;;
22916;SDS011;11624;53.250;7.456;2022-12-07T07:56:23;9.87;;;1.60;;
22916;SDS011;11624;53.250;7.456;2022-12-07T07:58:53;8.60;;;1.30;;
22916;SDS011;11624;53.250;7.456;2022-12-07T08:01:21;18.50;;;2.10;;
22916;SDS011;11624;53.250;7.456;2022-12-07T08:03:49;10.40;;;1.47;;
22916;SDS011;11624;53.250;7.456;2022-12-07T08:06:17;18.27;;;2.17;;
22916;SDS011;11624;53.250;7.456;2022-12-07T08:08:45;14.87;;;1.90;;
22916;SDS011;11624;53.250;7.456;2022-12-07T08:11:13;13.57;;;2.07;;
22916;SDS011;11624;53.250;7.456;2022-12-07T08:13:41;15.70;;;3.20;;
22916;SDS011;11624;53.250;7.456;2022-12-07T08:16:13;14.50;;;2.00;;
22916;SDS011;11624;53.250;7.456;2022-12-07T08:18:42;13.53;;;2.07;;
22916;SDS011;11624;53.250;7.456;2022-12-07T08:21:12;11.30;;;2.20;;
22916;SDS011;11624;53.250;7.456;2022-12-07T08:23:41;13.67;;;2.03;;
22916;SDS011;11624;53.250;7.456;2022-12-07T08:26:10;11.43;;;2.17;;
22916;SDS011;11624;53.250;7.456;2022-12-07T08:28:40;14.63;;;2.13;;
22916;SDS011;11624;53.250;7.456;2022-12-07T08:31:10;14.07;;;1.87;;
22916;SDS011;11624;53.250;7.456;2022-12-07T08:33:41;15.80;;;2.00;;
22916;SDS011;11624;53.250;7.456;2022-12-07T08:36:09;9.77;;;2.13;;
22916;SDS011;11624;53.250;7.456;2022-12-07T08:38:39;10.20;;;1.57;;
22916;SDS011;11624;53.250;7.456;2022-12-07T08:41:28;15.70;;;2.30;;
22916;SDS011;11624;53.250;7.456;2022-12-07T08:43:57;19.30;;;1.87;;
22916;SDS011;11624;53.250;7.456;2022-12-07T08:46:25;9.63;;;1.67;;
22916;SDS011;11624;53.250;7.456;2022-12-07T08:48:58;10.27;;;1.93;;
22916;SDS011;11624;53.250;7.456;2022-12-07T08:51:29;14.97;;;1.70;;
22916;SDS011;11624;53.250;7.456;2022-12-07T08:53:58;12.33;;;1.70;;
22916;SDS011;11624;53.250;7.456;2022-12-07T08:56:28;14.87;;;2.00;;
22916;SDS011;11624;53.250;7.456;2022-12-07T08:58:56;14.73;;;2.20;;
22916;SDS011;11624;53.250;7.456;2022-12-07T09:01:25;14.77;;;2.00;;
22916;SDS011;11624;53.250;7.456;2022-12-07T09:03:53;10.13;;;1.90;;
22916;SDS011;11624;53.250;7.456;2022-12-07T09:06:23;16.30;;;2.03;;
22916;SDS011;11624;53.250;7.456;2022-12-07T09:08:52;15.10;;;1.87;;
22916;SDS011;11624;53.250;7.456;2022-12-07T09:11:23;9.87;;;1.87;;
22916;SDS011;11624;53.250;7.456;2022-12-07T09:13:54;18.20;;;2.00;;
22916;SDS011;11624;53.250;7.456;2022-12-07T09:16:22;12.80;;;2.00;;
22916;SDS011;11624;53.250;7.456;2022-12-07T09:18:50;14.73;;;2.13;;
22916;SDS011;11624;53.250;7.456;2022-12-07T09:21:18;16.03;;;2.03;;
22916;SDS011;11624;53.250;7.456;2022-12-07T09:23:48;11.60;;;1.77;;
22916;SDS011;11624;53.250;7.456;2022-12-07T09:26:16;16.57;;;2.13;;
22916;SDS011;11624;53.250;7.456;2022-12-07T09:28:44;21.70;;;2.47;;
22916;SDS011;11624;53.250;7.456;2022-12-07T09:31:12;13.97;;;2.00;;
22916;SDS011;11624;53.250;7.456;2022-12-07T09:33:52;12.13;;;1.70;;
22916;SDS011;11624;53.250;7.456;2022-12-07T09:36:21;12.57;;;1.90;;
22916;SDS011;11624;53.250;7.456;2022-12-07T09:38:50;15.17;;;1.97;;
22916;SDS011;11624;53.250;7.456;2022-12-07T09:41:19;12.60;;;2.00;;
22916;SDS011;11624;53.250;7.456;2022-12-07T09:43:48;12.53;;;1.70;;
22916;SDS011;11624;53.250;7.456;2022-12-07T09:46:17;12.47;;;1.90;;
22916;SDS011;11624;53.250;7.456;2022-12-07T09:48:48;13.13;;;1.97;;
22916;SDS011;11624;53.250;7.456;2022-12-07T09:51:18;11.87;;;2.00;;
22916;SDS011;11624;53.250;7.456;2022-12-07T09:53:52;11.40;;;1.83;;
22916;SDS011;11624;53.250;7.456;2022-12-07T09:56:22;13.33;;;1.97;;
22916;SDS011;11624;53.250;7.456;2022-12-07T09:58:51;11.50;;;2.07;;
22916;SDS011;11624;53.250;7.456;2022-12-07T10:01:27;12.33;;;2.20;;
22916;SDS011;11624;53.250;7.456;2022-12-07T10:03:59;12.97;;;1.80;;
22916;SDS011;11624;53.250;7.456;2022-12-07T10:06:34;11.57;;;1.90;;
22916;SDS011;11624;53.250;7.456;2022-12-07T10:09:07;10.03;;;1.73;;
22916;SDS011;11624;53.250;7.456;2022-12-07T10:14:32;11.27;;;1.80;;
22916;SDS011;11624;53.250;7.456;2022-12-07T10:17:30;7.03;;;1.53;;
22916;SDS011;11624;53.250;7.456;2022-12-07T10:20:08;14.13;;;2.23;;
22916;SDS011;11624;53.250;7.456;2022-12-07T10:22:53;15.43;;;2.50;;
22916;SDS011;11624;53.250;7.456;2022-12-07T10:25:27;10.43;;;1.27;;
22916;SDS011;11624;53.250;7.456;2022-12-07T10:28:03;11.52;;;1.42;;
22916;SDS011;11624;53.250;7.456;2022-12-07T10:30:46;10.45;;;1.35;;
22916;SDS011;11624;53.250;7.456;2022-12-07T10:33:29;12.32;;;1.70;;
22916;SDS011;11624;53.250;7.456;2022-12-07T10:36:15;10.80;;;1.80;;
22916;SDS011;11624;53.250;7.456;2022-12-07T10:38:46;12.50;;;1.70;;
22916;SDS011;11624;53.250;7.456;2022-12-07T10:41:17;10.98;;;1.42;;
22916;SDS011;11624;53.250;7.456;2022-12-07T10:43:54;10.43;;;1.55;;
22916;SDS011;11624;53.250;7.456;2022-12-07T10:49:47;11.25;;;1.50;;
22916;SDS011;11624;53.250;7.456;2022-12-07T10:52:39;8.65;;;1.63;;
22916;SDS011;11624;53.250;7.456;2022-12-07T10:55:17;14.88;;;1.52;;
22916;SDS011;11624;53.250;7.456;2022-12-07T10:58:03;9.60;;;1.27;;
22916;SDS011;11624;53.250;7.456;2022-12-07T11:00:50;7.63;;;1.27;;
22916;SDS011;11624;53.250;7.456;2022-12-07T11:03:32;3.63;;;0.63;;
22916;SDS011;11624;53.250;7.456;2022-12-07T11:06:14;7.93;;;1.20;;
22916;SDS011;11624;53.250;7.456;2022-12-07T11:09:00;12.48;;;1.20;;
22916;SDS011;11624;53.250;7.456;2022-12-07T11:12:12;5.55;;;1.02;;
22916;SDS011;11624;53.250;7.456;2022-12-07T11:14:54;9.95;;;1.40;;
22916;SDS011;11624;53.250;7.456;2022-12-07T11:17:26;3.28;;;0.80;;
22916;SDS011;11624;53.250;7.456;2022-12-07T11:20:04;13.75;;;1.98;;
22916;SDS011;11624;53.250;7.456;2022-12-07T11:22:43;6.60;;;1.10;;
22916;SDS011;11624;53.250;7.456;2022-12-07T11:25:20;7.82;;;0.82;;
22916;SDS011;11624;53.250;7.456;2022-12-07T11:28:00;9.07;;;1.40;;
22916;SDS011;11624;53.250;7.456;2022-12-07T11:30:40;7.88;;;1.67;;
22916;SDS011;11624;53.250;7.456;2022-12-07T11:33:15;7.80;;;1.50;;
22916;SDS011;11624;53.250;7.456;2022-12-07T11:35:54;9.10;;;1.30;;
22916;SDS011;11624;53.250;7.456;2022-12-07T11:38:33;9.55;;;1.30;;
22916;SDS011;11624;53.250;7.456;2022-12-07T11:41:05;8.32;;;1.30;;
22916;SDS011;11624;53.250;7.456;2022-12-07T11:43:49;10.90;;;1.40;;
22916;SDS011;11624;53.250;7.456;2022-12-07T11:46:24;7.03;;;0.82;;
22916;SDS011;11624;53.250;7.456;2022-12-07T11:48:57;10.50;;;1.42;;
22916;SDS011;11624;53.250;7.456;2022-12-07T11:51:29;11.18;;;1.50;;
22916;SDS011;11624;53.250;7.456;2022-12-07T11:54:03;9.88;;;1.25;;
22916;SDS011;11624;53.250;7.456;2022-12-07T11:56:38;10.27;;;1.08;;
22916;SDS011;11624;53.250;7.456;2022-12-07T11:59:08;8.80;;;1.23;;
22916;SDS011;11624;53.250;7.456;2022-12-07T12:01:44;14.82;;;1.30;;
22916;SDS011;11624;53.250;7.456;2022-12-07T12:04:23;10.63;;;1.45;;
22916;SDS011;11624;53.250;7.456;2022-12-07T12:06:58;5.72;;;1.10;;
22916;SDS011;11624;53.250;7.456;2022-12-07T12:09:48;9.98;;;1.05;;
22916;SDS011;11624;53.250;7.456;2022-12-07T12:12:23;10.18;;;1.42;;
22916;SDS011;11624;53.250;7.456;2022-12-07T12:15:28;6.65;;;1.50;;
22916;SDS011;11624;53.250;7.456;2022-12-07T12:18:09;10.13;;;1.23;;
22916;SDS011;11624;53.250;7.456;2022-12-07T12:21:01;7.47;;;1.10;;
22916;SDS011;11624;53.250;7.456;2022-12-07T12:23:35;6.93;;;0.90;;
22916;SDS011;11624;53.250;7.456;2022-12-07T12:26:13;10.25;;;1.20;;
22916;SDS011;11624;53.250;7.456;2022-12-07T12:28:49;10.13;;;1.17;;
22916;SDS011;11624;53.250;7.456;2022-12-07T12:46:38;7.47;;;1.50;;
22916;SDS011;11624;53.250;7.456;2022-12-07T12:55:20;6.47;;;0.80;;
22916;SDS011;11624;53.250;7.456;2022-12-07T13:04:22;7.20;;;1.35;;
22916;SDS011;11624;53.250;7.456;2022-12-07T13:06:57;7.30;;;1.33;;
22916;SDS011;11624;53.250;7.456;2022-12-07T13:09:27;8.52;;;1.10;;
22916;SDS011;11624;53.250;7.456;2022-12-07T13:12:01;10.88;;;1.38;;
22916;SDS011;11624;53.250;7.456;2022-12-07T13:20:47;5.35;;;0.90;;
22916;SDS011;11624;53.250;7.456;2022-12-07T13:23:22;9.00;;;1.27;;
22916;SDS011;11624;53.250;7.456;2022-12-07T13:26:12;3.65;;;0.75;;
22916;SDS011;11624;53.250;7.456;2022-12-07T13:28:45;3.83;;;0.93;;
22916;SDS011;11624;53.250;7.456;2022-12-07T13:34:02;8.48;;;1.33;;
22916;SDS011;11624;53.250;7.456;2022-12-07T13:36:32;7.43;;;1.17;;
22916;SDS011;11624;53.250;7.456;2022-12-07T13:39:17;6.03;;;1.25;;
22916;SDS011;11624;53.250;7.456;2022-12-07T13:41:49;8.18;;;1.10;;
22916;SDS011;11624;53.250;7.456;2022-12-07T13:44:19;12.25;;;1.25;;
22916;SDS011;11624;53.250;7.456;2022-12-07T13:46:50;4.57;;;0.80;;
22916;SDS011;11624;53.250;7.456;2022-12-07T13:49:24;10.15;;;1.50;;
22916;SDS011;11624;53.250;7.456;2022-12-07T13:51:53;10.85;;;1.10;;
22916;SDS011;11624;53.250;7.456;2022-12-07T13:54:23;12.63;;;1.25;;
22916;SDS011;11624;53.250;7.456;2022-12-07T13:56:51;7.82;;;1.40;;
22916;SDS011;11624;53.250;7.456;2022-12-07T13:59:21;16.05;;;1.60;;
22916;SDS011;11624;53.250;7.456;2022-12-07T14:01:50;13.30;;;1.52;;
22916;SDS011;11624;53.250;7.456;2022-12-07T14:04:26;11.07;;;1.65;;
22916;SDS011;11624;53.250;7.456;2022-12-07T14:06:58;7.82;;;1.38;;
22916;SDS011;11624;53.250;7.456;2022-12-07T14:09:29;8.52;;;1.60;;
22916;SDS011;11624;53.250;7.456;2022-12-07T14:11:57;11.32;;;1.67;;
22916;SDS011;11624;53.250;7.456;2022-12-07T14:14:26;15.55;;;2.05;;
22916;SDS011;11624;53.250;7.456;2022-12-07T14:17:08;12.23;;;1.95;;
22916;SDS011;11624;53.250;7.456;2022-12-07T14:19:41;11.20;;;1.73;;
22916;SDS011;11624;53.250;7.456;2022-12-07T14:22:27;12.40;;;2.08;;
22916;SDS011;11624;53.250;7.456;2022-12-07T14:25:00;13.60;;;2.20;;
22916;SDS011;11624;53.250;7.456;2022-12-07T14:27:39;6.00;;;1.35;;
22916;SDS011;11624;53.250;7.456;2022-12-07T14:30:16;8.70;;;1.70;;
22916;SDS011;11624;53.250;7.456;2022-12-07T14:32:52;11.18;;;1.92;;
22916;SDS011;11624;53.250;7.456;2022-12-07T14:35:21;12.32;;;2.00;;
22916;SDS011;11624;53.250;7.456;2022-12-07T14:37:49;10.90;;;1.80;;
22916;SDS011;11624;53.250;7.456;2022-12-07T14:40:20;11.77;;;1.80;;
22916;SDS011;11624;53.250;7.456;2022-12-07T14:42:51;7.60;;;1.45;;
22916;SDS011;11624;53.250;7.456;2022-12-07T14:45:22;7.72;;;1.45;;
22916;SDS011;11624;53.250;7.456;2022-12-07T14:47:51;9.10;;;1.17;;
22916;SDS011;11624;53.250;7.456;2022-12-07T14:50:40;8.85;;;1.33;;
22916;SDS011;11624;53.250;7.456;2022-12-07T14:53:31;5.40;;;1.30;;
22916;SDS011;11624;53.250;7.456;2022-12-07T14:56:04;8.60;;;1.20;;
22916;SDS011;11624;53.250;7.456;2022-12-07T14:58:33;4.27;;;0.93;;
22916;SDS011;11624;53.250;7.456;2022-12-07T15:01:01;6.97;;;1.03;;
22916;SDS011;11624;53.250;7.456;2022-12-07T15:03:30;6.50;;;1.00;;
22916;SDS011;11624;53.250;7.456;2022-12-07T15:05:58;7.20;;;1.07;;
22916;SDS011;11624;53.250;7.456;2022-12-07T15:08:26;5.73;;;0.90;;
22916;SDS011;11624;53.250;7.456;2022-12-07T15:10:54;7.93;;;1.03;;
22916;SDS011;11624;53.250;7.456;2022-12-07T15:13:24;5.60;;;1.00;;
22916;SDS011;11624;53.250;7.456;2022-12-07T15:16:10;8.37;;;1.17;;
22916;SDS011;11624;53.250;7.456;2022-12-07T15:18:40;5.40;;;1.17;;
22916;SDS011;11624;53.250;7.456;2022-12-07T15:21:28;9.50;;;1.07;;
22916;SDS011;11624;53.250;7.456;2022-12-07T15:23:56;4.77;;;0.77;;
22916;SDS011;11624;53.250;7.456;2022-12-07T15:26:24;4.13;;;0.93;;
22916;SDS011;11624;53.250;7.456;2022-12-07T15:28:53;6.77;;;0.93;;
22916;SDS011;11624;53.250;7.456;2022-12-07T15:31:22;5.47;;;0.80;;
22916;SDS011;11624;53.250;7.456;2022-12-07T15:34:10;7.27;;;1.20;;
22916;SDS011;11624;53.250;7.456;2022-12-07T15:36:38;4.53;;;0.77;;
22916;SDS011;11624;53.250;7.456;2022-12-07T15:39:06;5.30;;;0.70;;
22916;SDS011;11624;53.250;7.456;2022-12-07T15:41:41;4.37;;;0.90;;
22916;SDS011;11624;53.250;7.456;2022-12-07T15:44:11;6.10;;;1.00;;
22916;SDS011;11624;53.250;7.456;2022-12-07T15:46:57;9.83;;;1.97;;
22916;SDS011;11624;53.250;7.456;2022-12-07T15:49:26;5.40;;;1.07;;
22916;SDS011;11624;53.250;7.456;2022-12-07T15:51:55;5.70;;;1.10;;
22916;SDS011;11624;53.250;7.456;2022-12-07T15:54:23;3.50;;;0.83;;
22916;SDS011;11624;53.250;7.456;2022-12-07T15:56:53;6.47;;;1.00;;